Columbine Maersk — OUHC2 — position and weather

sailwx.info

Track history (hours):
 
Tides and Currents Weather Stations Pressure Air Temp Water Temp Dewpoint Dewpoint Depression Visibility Wind Speed Wind Dir Waves Ship Positions

Columbine Maersk

Last reported at 2018-Jun-09 06:24 UTC. Time now 2018-Jun-23 15:37 UTC.
Position N 30°53' E 032°19'.
Warning: this ship's position is 14 days out of date.

Type: Ship (hazmat cat A). MMSI: 220129000.

Date/timePositionNaut miles runAvg speedWind from/ knotsBaromVisibWave heightAir tempDewpointWater temp
2018-Jun-09 06:24N 30°53' E 032°19'4 9.4
2018-Jun-09 05:55N 30°57' E 032°19'11 8.7
2018-Jun-09 04:42N 31°08' E 032°19'2 7.8
2018-Jun-09 04:29N 31°09' E 032°19'10 8.0
2018-Jun-09 03:13N 31°19' E 032°22'7 4.0
2018-Jun-09 01:23N 31°25' E 032°18'16 2.7
2018-Jun-08 19:33N 31°37' E 032°06'112.8
2018-Jun-08 19:30N 31°38' E 032°06'713.1
2018-Jun-08 19:00N 31°42' E 032°00'6515.2
2018-Jun-08 14:45N 32°04' E 030°48'1615.6
2018-Jun-08 13:44N 32°08' E 030°30'415.7
2018-Jun-08 13:30N 32°10' E 030°26'1515.6
2018-Jun-08 12:33N 32°14' E 030°10'115.6
2018-Jun-08 12:30N 32°14' E 030°09'3715.6
2018-Jun-08 10:06N 32°25' E 029°26'74815.8
2018-Jun-06 10:41N 36°18' E 015°05'516.0
2018-Jun-06 10:23N 36°20' E 014°59'616.1
2018-Jun-06 10:00N 36°21' E 014°52'816.1
2018-Jun-06 09:30N 36°24' E 014°42'816.6
2018-Jun-06 09:00N 36°26' E 014°32'816.8
2018-Jun-06 08:30N 36°28' E 014°22'816.8
2018-Jun-06 08:00N 36°31' E 014°12'916.6
2018-Jun-06 07:28N 36°34' E 014°02'816.7
2018-Jun-06 07:00N 36°37' E 013°53'816.9
2018-Jun-06 06:30N 36°40' E 013°43'816.9
2018-Jun-06 06:00N 36°43' E 013°33'816.6
2018-Jun-06 05:30N 36°46' E 013°23'816.2
2018-Jun-06 05:00N 36°48' E 013°14'33216.1
2018-Jun-05 08:28N 37°17' E 006°20'10617.0
2018-Jun-05 02:12N 37°06' E 004°07'417.7
2018-Jun-05 01:59N 37°06' E 004°02'917.7
2018-Jun-05 01:30N 37°05' E 003°51'2117.2
2018-Jun-05 00:16N 37°02' E 003°25'10816.8
2018-Jun-04 17:51N 36°50' E 001°11'4717.2
2018-Jun-04 15:08N 36°39' E 000°14'216.7
2018-Jun-04 15:00N 36°39' E 000°12'916.9
2018-Jun-04 14:30N 36°38' E 000°01'1616.7
2018-Jun-04 13:31N 36°36' W 000°19'22217.5
2018-Jun-04 00:46N 36°02' W 004°52'518.8
2018-Jun-04 00:30N 36°01' W 004°58'918.9
2018-Jun-04 00:00N 36°00' W 005°10'1020.3
2018-Jun-03 23:30N 35°58' W 005°22'1019.8
2018-Jun-03 22:59N 35°56' W 005°35'1118.5
2018-Jun-03 22:23N 35°55' W 005°48'817.7
2018-Jun-03 21:56N 35°54' W 005°58'25816.8
2018-Jun-03 06:33N 36°51' W 011°11'516.7
2018-Jun-03 06:14N 36°53' W 011°17'716.5
2018-Jun-03 05:49N 36°55' W 011°25'1916.3
2018-Jun-03 04:40N 37°01' W 011°47'33716.6
2018-Jun-02 08:24N 38°37' W 018°36'1216.6
2018-Jun-02 07:41N 38°39' W 018°51'416.2
2018-Jun-02 07:25N 38°41' W 018°56'816.1
2018-Jun-02 06:55N 38°42' W 019°06'716.4
2018-Jun-02 06:30N 38°44' W 019°15'916.5
2018-Jun-02 05:57N 38°46' W 019°26'716.4
2018-Jun-02 05:30N 38°48' W 019°35'2116.6
2018-Jun-02 04:13N 38°53' W 020°02'416.4
2018-Jun-02 04:00N 38°54' W 020°06'916.3
2018-Jun-02 03:28N 38°56' W 020°17'1016.5
2018-Jun-02 02:52N 38°58' W 020°29'616.4
2018-Jun-02 02:30N 38°60' W 020°37'1016.7
2018-Jun-02 01:56N 39°02' W 020°49'716.5
2018-Jun-02 01:30N 39°04' W 020°58'816.2
2018-Jun-02 01:00N 39°05' W 021°08'816.2
2018-Jun-02 00:31N 39°07' W 021°18'816.3
2018-Jun-02 00:00N 39°09' W 021°28'816.1
2018-Jun-01 23:30N 39°10' W 021°39'816.3
2018-Jun-01 23:01N 39°12' W 021°49'816.5
2018-Jun-01 22:30N 39°14' W 021°59'1316.2
2018-Jun-01 21:42N 39°16' W 022°16'316.0
2018-Jun-01 21:30N 39°17' W 022°20'816.4
2018-Jun-01 20:59N 39°19' W 022°31'816.6
2018-Jun-01 20:30N 39°20' W 022°41'816.3
2018-Jun-01 20:00N 39°22' W 022°51'6016.7
2018-Jun-01 16:24N 39°34' W 024°07'716.4
2018-Jun-01 15:59N 39°35' W 024°16'3616.4
2018-Jun-01 13:46N 39°42' W 025°02'816.8
2018-Jun-01 13:18N 39°43' W 025°12'616.7
2018-Jun-01 12:57N 39°44' W 025°20'9416.7
2018-Jun-01 07:19N 39°59' W 027°21'5416.9
2018-Jun-01 04:06N 40°07' W 028°31'116.2
2018-Jun-01 04:00N 40°07' W 028°33'1016.8
2018-Jun-01 03:24N 40°09' W 028°46'817.1
2018-Jun-01 02:57N 40°10' W 028°56'816.9
2018-Jun-01 02:30N 40°11' W 029°06'917.4
2018-Jun-01 01:59N 40°12' W 029°18'917.3
2018-Jun-01 01:27N 40°14' W 029°30'817.5
2018-Jun-01 01:00N 40°14' W 029°40'1417.2
2018-Jun-01 00:12N 40°16' W 029°58'417.1
2018-May-31 23:59N 40°16' W 030°03'1117.0
2018-May-31 23:19N 40°18' W 030°17'916.9
2018-May-31 22:48N 40°19' W 030°29'816.8
2018-May-31 22:18N 40°20' W 030°40'716.9
2018-May-31 21:52N 40°21' W 030°49'816.8
2018-May-31 21:22N 40°22' W 031°00'716.9
2018-May-31 20:59N 40°23' W 031°08'  
Track history (hours):
 
Tides and Currents Weather Stations Pressure Air Temp Water Temp Dewpoint Dewpoint Depression Visibility Wind Speed Wind Dir Waves Ship Positions

Columbine Maersk

Last reported at 2018-Jun-09 06:24 UTC. Time now 2018-Jun-23 15:37 UTC.
Position N 30°53' E 032°19'.
Warning: this ship's position is 14 days out of date.

Type: Ship (hazmat cat A). MMSI: 220129000.

Date/timePositionNaut miles runAvg speedWind from/ knotsBaromVisibWave heightAir tempDewpointWater temp
2018-Jun-09 06:24N 30°53' E 032°19'4 9.4
2018-Jun-09 05:55N 30°57' E 032°19'11 8.7
2018-Jun-09 04:42N 31°08' E 032°19'2 7.8
2018-Jun-09 04:29N 31°09' E 032°19'10 8.0
2018-Jun-09 03:13N 31°19' E 032°22'7 4.0
2018-Jun-09 01:23N 31°25' E 032°18'16 2.7
2018-Jun-08 19:33N 31°37' E 032°06'112.8
2018-Jun-08 19:30N 31°38' E 032°06'713.1
2018-Jun-08 19:00N 31°42' E 032°00'6515.2
2018-Jun-08 14:45N 32°04' E 030°48'1615.6
2018-Jun-08 13:44N 32°08' E 030°30'415.7
2018-Jun-08 13:30N 32°10' E 030°26'1515.6
2018-Jun-08 12:33N 32°14' E 030°10'115.6
2018-Jun-08 12:30N 32°14' E 030°09'3715.6
2018-Jun-08 10:06N 32°25' E 029°26'74815.8
2018-Jun-06 10:41N 36°18' E 015°05'516.0
2018-Jun-06 10:23N 36°20' E 014°59'616.1
2018-Jun-06 10:00N 36°21' E 014°52'816.1
2018-Jun-06 09:30N 36°24' E 014°42'816.6
2018-Jun-06 09:00N 36°26' E 014°32'816.8
2018-Jun-06 08:30N 36°28' E 014°22'816.8
2018-Jun-06 08:00N 36°31' E 014°12'916.6
2018-Jun-06 07:28N 36°34' E 014°02'816.7
2018-Jun-06 07:00N 36°37' E 013°53'816.9
2018-Jun-06 06:30N 36°40' E 013°43'816.9
2018-Jun-06 06:00N 36°43' E 013°33'816.6
2018-Jun-06 05:30N 36°46' E 013°23'816.2
2018-Jun-06 05:00N 36°48' E 013°14'33216.1
2018-Jun-05 08:28N 37°17' E 006°20'10617.0
2018-Jun-05 02:12N 37°06' E 004°07'417.7
2018-Jun-05 01:59N 37°06' E 004°02'917.7
2018-Jun-05 01:30N 37°05' E 003°51'2117.2
2018-Jun-05 00:16N 37°02' E 003°25'10816.8
2018-Jun-04 17:51N 36°50' E 001°11'4717.2
2018-Jun-04 15:08N 36°39' E 000°14'216.7
2018-Jun-04 15:00N 36°39' E 000°12'916.9
2018-Jun-04 14:30N 36°38' E 000°01'1616.7
2018-Jun-04 13:31N 36°36' W 000°19'22217.5
2018-Jun-04 00:46N 36°02' W 004°52'518.8
2018-Jun-04 00:30N 36°01' W 004°58'918.9
2018-Jun-04 00:00N 36°00' W 005°10'1020.3
2018-Jun-03 23:30N 35°58' W 005°22'1019.8
2018-Jun-03 22:59N 35°56' W 005°35'1118.5
2018-Jun-03 22:23N 35°55' W 005°48'817.7
2018-Jun-03 21:56N 35°54' W 005°58'25816.8
2018-Jun-03 06:33N 36°51' W 011°11'516.7
2018-Jun-03 06:14N 36°53' W 011°17'716.5
2018-Jun-03 05:49N 36°55' W 011°25'1916.3
2018-Jun-03 04:40N 37°01' W 011°47'33716.6
2018-Jun-02 08:24N 38°37' W 018°36'1216.6
2018-Jun-02 07:41N 38°39' W 018°51'416.2
2018-Jun-02 07:25N 38°41' W 018°56'816.1
2018-Jun-02 06:55N 38°42' W 019°06'716.4
2018-Jun-02 06:30N 38°44' W 019°15'916.5
2018-Jun-02 05:57N 38°46' W 019°26'716.4
2018-Jun-02 05:30N 38°48' W 019°35'2116.6
2018-Jun-02 04:13N 38°53' W 020°02'416.4
2018-Jun-02 04:00N 38°54' W 020°06'916.3
2018-Jun-02 03:28N 38°56' W 020°17'1016.5
2018-Jun-02 02:52N 38°58' W 020°29'616.4
2018-Jun-02 02:30N 38°60' W 020°37'1016.7
2018-Jun-02 01:56N 39°02' W 020°49'716.5
2018-Jun-02 01:30N 39°04' W 020°58'816.2
2018-Jun-02 01:00N 39°05' W 021°08'816.2
2018-Jun-02 00:31N 39°07' W 021°18'816.3
2018-Jun-02 00:00N 39°09' W 021°28'816.1
2018-Jun-01 23:30N 39°10' W 021°39'816.3
2018-Jun-01 23:01N 39°12' W 021°49'816.5
2018-Jun-01 22:30N 39°14' W 021°59'1316.2
2018-Jun-01 21:42N 39°16' W 022°16'316.0
2018-Jun-01 21:30N 39°17' W 022°20'816.4
2018-Jun-01 20:59N 39°19' W 022°31'816.6
2018-Jun-01 20:30N 39°20' W 022°41'816.3
2018-Jun-01 20:00N 39°22' W 022°51'6016.7
2018-Jun-01 16:24N 39°34' W 024°07'716.4
2018-Jun-01 15:59N 39°35' W 024°16'3616.4
2018-Jun-01 13:46N 39°42' W 025°02'816.8
2018-Jun-01 13:18N 39°43' W 025°12'616.7
2018-Jun-01 12:57N 39°44' W 025°20'9416.7
2018-Jun-01 07:19N 39°59' W 027°21'5416.9
2018-Jun-01 04:06N 40°07' W 028°31'116.2
2018-Jun-01 04:00N 40°07' W 028°33'1016.8
2018-Jun-01 03:24N 40°09' W 028°46'817.1
2018-Jun-01 02:57N 40°10' W 028°56'816.9
2018-Jun-01 02:30N 40°11' W 029°06'917.4
2018-Jun-01 01:59N 40°12' W 029°18'917.3
2018-Jun-01 01:27N 40°14' W 029°30'817.5
2018-Jun-01 01:00N 40°14' W 029°40'1417.2
2018-Jun-01 00:12N 40°16' W 029°58'417.1
2018-May-31 23:59N 40°16' W 030°03'1117.0
2018-May-31 23:19N 40°18' W 030°17'916.9
2018-May-31 22:48N 40°19' W 030°29'816.8
2018-May-31 22:18N 40°20' W 030°40'716.9
2018-May-31 21:52N 40°21' W 030°49'816.8
2018-May-31 21:22N 40°22' W 031°00'716.9
2018-May-31 20:59N 40°23' W 031°08'  

Dump ship's entire track history